createdAt,value
2018-07-13T00:01:31.871Z,7.50
2018-07-13T00:04:00.632Z,9.00
2018-07-13T00:06:29.582Z,4.87
2018-07-13T00:08:58.623Z,10.63
2018-07-13T00:11:27.542Z,13.47
2018-07-13T00:14:22.360Z,8.20
2018-07-13T00:16:52.546Z,7.67
2018-07-13T00:19:22.091Z,9.67
2018-07-13T00:21:51.179Z,5.83
2018-07-13T00:24:19.949Z,12.13
2018-07-13T00:26:48.742Z,5.83
2018-07-13T00:29:17.513Z,5.80
2018-07-13T00:31:47.794Z,6.90
2018-07-13T00:34:16.903Z,7.03
2018-07-13T00:36:45.795Z,12.47
2018-07-13T00:39:14.868Z,12.10
2018-07-13T00:41:43.842Z,12.33
2018-07-13T00:44:12.283Z,12.77
2018-07-13T00:46:40.938Z,10.00
2018-07-13T00:49:09.902Z,7.63
2018-07-13T00:51:38.794Z,7.57
2018-07-13T00:54:07.816Z,8.87
2018-07-13T00:56:36.905Z,12.47
2018-07-13T00:59:05.929Z,9.10
2018-07-13T01:01:34.912Z,9.50
2018-07-13T01:04:04.017Z,11.80
2018-07-13T01:06:33.321Z,8.13
2018-07-13T01:09:02.490Z,11.87
2018-07-13T01:11:31.652Z,6.30
2018-07-13T01:14:00.692Z,8.67
2018-07-13T01:16:29.864Z,11.10
2018-07-13T01:18:58.978Z,10.57
2018-07-13T01:21:28.069Z,9.70
2018-07-13T01:23:57.293Z,6.13
2018-07-13T01:26:26.366Z,11.03
2018-07-13T01:28:54.716Z,7.83
2018-07-13T01:31:23.550Z,12.33
2018-07-13T01:33:52.402Z,6.90
2018-07-13T01:36:21.543Z,6.20
2018-07-13T01:38:50.612Z,6.07
2018-07-13T01:41:19.764Z,11.83
2018-07-13T01:43:48.685Z,10.73
2018-07-13T01:46:17.576Z,10.80
2018-07-13T01:48:47.348Z,10.07
2018-07-13T01:51:16.625Z,5.23
2018-07-13T01:53:45.706Z,6.57
2018-07-13T01:56:14.830Z,9.73
2018-07-13T01:58:43.916Z,9.17
2018-07-13T02:01:12.825Z,6.17
2018-07-13T02:03:41.972Z,12.37
2018-07-13T02:06:11.105Z,10.53
2018-07-13T02:08:40.408Z,11.00
2018-07-13T02:11:09.589Z,6.40
2018-07-13T02:13:38.618Z,6.10
2018-07-13T02:16:07.712Z,9.17
2018-07-13T02:18:36.563Z,6.60
2018-07-13T02:21:05.662Z,16.87
2018-07-13T02:23:34.558Z,8.23
2018-07-13T02:26:03.973Z,7.90
2018-07-13T02:28:33.013Z,4.50
2018-07-13T02:31:01.936Z,11.10
2018-07-13T02:33:30.833Z,8.47
2018-07-13T02:35:59.422Z,8.80
2018-07-13T02:38:28.452Z,6.23
2018-07-13T02:40:57.595Z,6.70
2018-07-13T02:43:26.564Z,12.30
2018-07-13T02:45:55.622Z,11.50
2018-07-13T02:48:24.589Z,5.27
2018-07-13T02:50:53.651Z,5.87
2018-07-13T02:53:22.727Z,6.50
2018-07-13T02:55:51.832Z,5.47
2018-07-13T02:58:20.540Z,7.67
2018-07-13T03:00:49.592Z,8.83
2018-07-13T03:03:18.773Z,7.17
2018-07-13T03:05:47.758Z,5.43
2018-07-13T03:08:16.645Z,6.43
2018-07-13T03:10:45.601Z,9.10
2018-07-13T03:13:14.662Z,5.70
2018-07-13T03:15:43.728Z,6.57
2018-07-13T03:18:12.590Z,8.20
2018-07-13T03:20:41.316Z,8.83
2018-07-13T03:23:13.553Z,6.67
2018-07-13T03:25:42.396Z,6.80
2018-07-13T03:28:11.219Z,4.60
2018-07-13T03:30:40.560Z,7.20
2018-07-13T03:33:25.626Z,10.30
2018-07-13T03:35:54.425Z,8.07
2018-07-13T03:38:23.318Z,6.13
2018-07-13T03:40:52.097Z,9.03
2018-07-13T03:43:20.696Z,6.93
2018-07-13T03:45:49.422Z,9.43
2018-07-13T03:48:18.271Z,12.23
2018-07-13T03:50:47.007Z,8.17
2018-07-13T03:53:16.022Z,7.50
2018-07-13T03:55:44.881Z,12.33
2018-07-13T03:58:14.148Z,7.43
2018-07-13T04:00:43.218Z,6.47
2018-07-13T04:03:12.103Z,13.57
2018-07-13T04:05:40.964Z,9.00
2018-07-13T04:08:09.874Z,5.27
2018-07-13T04:10:38.903Z,12.27
2018-07-13T04:13:07.741Z,8.43
2018-07-13T04:15:36.805Z,8.77
2018-07-13T04:18:06.014Z,7.20
2018-07-13T04:20:35.167Z,10.30
2018-07-13T04:23:04.301Z,5.07
2018-07-13T04:25:33.493Z,7.40
2018-07-13T04:28:02.706Z,6.70
2018-07-13T04:30:31.815Z,9.33
2018-07-13T04:33:00.975Z,9.07
2018-07-13T04:35:30.044Z,4.93
2018-07-13T04:38:03.902Z,8.83
2018-07-13T04:40:32.938Z,8.57
2018-07-13T04:43:01.971Z,11.00
2018-07-13T04:45:31.191Z,5.40
2018-07-13T04:48:00.190Z,5.70
2018-07-13T04:50:29.115Z,4.17
2018-07-13T04:52:58.140Z,4.57
2018-07-13T04:55:27.395Z,10.03
2018-07-13T04:57:56.415Z,10.83
2018-07-13T05:00:25.493Z,4.07
2018-07-13T05:02:54.729Z,5.43
2018-07-13T05:05:23.885Z,11.93
2018-07-13T05:07:52.815Z,5.50
2018-07-13T05:10:25.804Z,8.10
2018-07-13T05:12:54.909Z,12.87
2018-07-13T05:15:23.810Z,5.10
2018-07-13T05:17:52.743Z,6.80
2018-07-13T05:20:22.026Z,5.23
2018-07-13T05:22:50.880Z,5.43
2018-07-13T05:25:20.443Z,6.33
2018-07-13T05:27:50.013Z,4.33
2018-07-13T05:30:19.083Z,11.07
2018-07-13T05:32:48.417Z,12.40
2018-07-13T05:35:17.606Z,7.07
2018-07-13T05:37:46.639Z,11.30
2018-07-13T05:40:17.964Z,5.40
2018-07-13T05:42:47.149Z,6.33
2018-07-13T05:45:16.434Z,8.83
2018-07-13T05:47:50.605Z,4.97
2018-07-13T05:50:19.723Z,7.80
2018-07-13T05:52:49.025Z,11.03
2018-07-13T05:55:18.457Z,8.90
2018-07-13T05:57:49.093Z,5.77
2018-07-13T06:00:39.069Z,5.97
2018-07-13T06:03:24.571Z,7.67
2018-07-13T06:05:53.746Z,6.33
2018-07-13T06:08:23.034Z,8.53
2018-07-13T06:10:52.400Z,6.80
2018-07-13T06:13:21.448Z,7.73
2018-07-13T06:15:50.548Z,10.30
2018-07-13T06:18:29.200Z,8.07
2018-07-13T06:20:58.191Z,7.60
2018-07-13T06:23:27.163Z,7.73
2018-07-13T06:25:56.391Z,6.57
2018-07-13T06:28:25.650Z,9.73
2018-07-13T06:30:54.920Z,8.00
2018-07-13T06:33:24.044Z,8.30
2018-07-13T06:35:53.444Z,7.90
2018-07-13T06:38:21.858Z,6.63
2018-07-13T06:40:51.424Z,7.23
2018-07-13T06:43:19.767Z,11.83
2018-07-13T06:45:50.280Z,10.93
2018-07-13T06:48:18.961Z,4.97
2018-07-13T06:50:47.056Z,6.70
2018-07-13T06:53:16.293Z,5.00
2018-07-13T06:55:45.141Z,5.27
2018-07-13T06:58:24.994Z,9.43
2018-07-13T07:01:09.048Z,9.97
2018-07-13T07:04:49.743Z,5.07
2018-07-13T07:07:19.845Z,11.53
2018-07-13T07:09:52.892Z,7.80
2018-07-13T07:13:01.653Z,8.93
2018-07-13T07:15:30.289Z,6.23
2018-07-13T07:17:58.823Z,8.63
2018-07-13T07:20:27.565Z,8.33
2018-07-13T07:22:56.496Z,6.87
2018-07-13T07:25:25.044Z,13.30
2018-07-13T07:27:53.563Z,8.27
2018-07-13T07:30:22.093Z,8.57
2018-07-13T07:32:50.243Z,9.97
2018-07-13T07:35:18.701Z,7.20
2018-07-13T07:37:47.100Z,13.40
2018-07-13T07:40:15.596Z,11.03
2018-07-13T07:42:44.129Z,8.20
2018-07-13T07:45:12.774Z,6.97
2018-07-13T07:47:41.294Z,6.70
2018-07-13T07:50:09.917Z,10.47
2018-07-13T07:52:38.496Z,7.57
2018-07-13T07:55:06.989Z,9.27
2018-07-13T07:57:35.475Z,9.50
2018-07-13T08:00:04.040Z,10.00
2018-07-13T08:02:32.590Z,9.77
2018-07-13T08:05:01.051Z,5.73
2018-07-13T08:07:30.600Z,8.77
2018-07-13T08:09:59.000Z,9.93
2018-07-13T08:12:31.084Z,11.57
2018-07-13T08:14:59.540Z,10.73
2018-07-13T08:17:27.742Z,8.57
2018-07-13T08:19:56.361Z,8.57
2018-07-13T08:22:30.567Z,9.37
2018-07-13T08:24:59.216Z,9.03
2018-07-13T08:27:35.502Z,3.83
2018-07-13T08:30:05.861Z,6.83
2018-07-13T08:32:34.405Z,8.20
2018-07-13T08:35:03.689Z,7.17
2018-07-13T08:37:32.120Z,10.97
2018-07-13T08:40:00.556Z,9.93
2018-07-13T08:42:29.059Z,8.63
2018-07-13T08:44:57.517Z,9.17
2018-07-13T08:47:26.001Z,5.37
2018-07-13T08:49:54.481Z,5.90
2018-07-13T08:52:23.368Z,9.60
2018-07-13T08:54:51.886Z,6.87
2018-07-13T08:57:20.397Z,5.00
2018-07-13T08:59:48.996Z,7.33
2018-07-13T09:02:17.525Z,3.90
2018-07-13T09:04:46.055Z,7.00
2018-07-13T09:07:14.425Z,7.27
2018-07-13T09:09:43.008Z,5.60
2018-07-13T09:12:11.126Z,14.07
2018-07-13T09:14:39.560Z,10.27
2018-07-13T09:17:08.179Z,4.93
2018-07-13T09:19:36.720Z,6.13
2018-07-13T09:22:05.196Z,4.40
2018-07-13T09:24:33.339Z,7.00
2018-07-13T09:27:01.705Z,4.70
2018-07-13T09:29:30.329Z,4.40
2018-07-13T09:31:58.748Z,5.07
2018-07-13T09:34:27.557Z,5.33
2018-07-13T09:36:56.092Z,7.77
2018-07-13T09:39:24.601Z,6.33
2018-07-13T09:41:53.139Z,9.07
2018-07-13T09:44:21.590Z,7.53
2018-07-13T09:46:50.311Z,5.93
2018-07-13T09:49:18.700Z,6.27
2018-07-13T09:51:47.102Z,4.63
2018-07-13T09:54:15.762Z,9.27
2018-07-13T09:56:44.121Z,8.77
2018-07-13T09:59:12.588Z,5.30
2018-07-13T10:01:41.085Z,6.07
2018-07-13T10:04:11.615Z,6.90
2018-07-13T10:06:40.160Z,6.53
2018-07-13T10:09:08.560Z,5.83
2018-07-13T10:11:37.107Z,4.37
2018-07-13T10:14:05.636Z,6.10
2018-07-13T10:16:34.149Z,4.93
2018-07-13T10:19:02.788Z,3.20
2018-07-13T10:21:33.388Z,4.27
2018-07-13T10:24:01.918Z,3.67
2018-07-13T10:26:38.295Z,5.58
2018-07-13T10:29:09.738Z,4.80
2018-07-13T10:31:38.240Z,4.28
2018-07-13T10:34:07.177Z,6.63
2018-07-13T10:36:39.823Z,5.08
2018-07-13T10:39:10.358Z,4.87
2018-07-13T10:41:38.985Z,5.47
2018-07-13T10:44:07.570Z,4.23
2018-07-13T10:46:36.154Z,4.97
2018-07-13T10:49:04.636Z,5.23
2018-07-13T10:51:33.107Z,4.10
2018-07-13T10:54:01.564Z,3.43
2018-07-13T10:56:29.997Z,4.15
2018-07-13T10:58:58.488Z,5.75
2018-07-13T11:01:27.022Z,3.33
2018-07-13T11:03:55.372Z,4.87
2018-07-13T11:06:23.692Z,3.77
2018-07-13T11:08:51.981Z,5.65
2018-07-13T11:11:20.299Z,4.75
2018-07-13T11:13:48.625Z,7.00
2018-07-13T11:16:17.122Z,2.58
2018-07-13T11:18:45.375Z,4.62
2018-07-13T11:21:13.639Z,4.62
2018-07-13T11:23:41.943Z,4.00
2018-07-13T11:26:10.219Z,5.45
2018-07-13T11:28:38.505Z,6.05
2018-07-13T11:31:06.917Z,5.33
2018-07-13T11:33:35.310Z,3.00
2018-07-13T11:36:03.566Z,4.67
2018-07-13T11:38:31.899Z,3.12
2018-07-13T11:41:00.342Z,3.65
2018-07-13T11:43:28.615Z,2.62
2018-07-13T11:45:56.599Z,3.90
2018-07-13T11:48:24.783Z,3.22
2018-07-13T11:50:53.085Z,3.33
2018-07-13T11:53:21.385Z,4.35
2018-07-13T11:55:49.691Z,3.40
2018-07-13T11:58:18.023Z,5.20
2018-07-13T12:00:46.329Z,3.45
2018-07-13T12:03:14.678Z,2.47
2018-07-13T12:05:42.964Z,1.90
2018-07-13T12:08:11.342Z,3.60
2018-07-13T12:10:39.861Z,3.65
2018-07-13T12:13:08.568Z,4.28
2018-07-13T12:15:37.321Z,5.00
2018-07-13T12:18:06.131Z,2.50
2018-07-13T12:20:34.469Z,4.70
2018-07-13T12:23:02.869Z,6.42
2018-07-13T12:25:31.357Z,5.47
2018-07-13T12:27:59.735Z,4.35
2018-07-13T12:30:28.240Z,4.30
2018-07-13T12:32:56.829Z,5.92
2018-07-13T12:35:25.317Z,7.58
2018-07-13T12:37:53.787Z,3.52
2018-07-13T12:40:32.729Z,5.65
2018-07-13T12:43:01.235Z,5.53
2018-07-13T12:45:29.763Z,6.92
2018-07-13T12:47:58.165Z,3.72
2018-07-13T12:50:26.590Z,5.25
2018-07-13T12:52:54.983Z,5.25
2018-07-13T12:55:23.432Z,4.22
2018-07-13T12:57:51.889Z,3.83
2018-07-13T13:00:20.364Z,5.05
2018-07-13T13:02:48.668Z,5.40
2018-07-13T13:05:16.989Z,5.15
2018-07-13T13:07:45.298Z,4.08
2018-07-13T13:10:13.619Z,6.62
2018-07-13T13:12:41.905Z,4.22
2018-07-13T13:15:09.872Z,4.78
2018-07-13T13:17:38.012Z,6.62
2018-07-13T13:20:06.317Z,3.62
2018-07-13T13:22:34.648Z,4.80
2018-07-13T13:25:04.952Z,3.95
2018-07-13T13:27:33.252Z,2.75
2018-07-13T13:30:01.660Z,3.67
2018-07-13T13:32:30.171Z,2.95
2018-07-13T13:34:58.649Z,4.92
2018-07-13T13:37:27.158Z,4.42
2018-07-13T13:39:55.616Z,3.95
2018-07-13T13:42:24.197Z,5.50
2018-07-13T13:44:52.625Z,4.05
2018-07-13T13:47:21.025Z,2.95
2018-07-13T13:49:49.492Z,3.50
2018-07-13T13:52:17.892Z,7.30
2018-07-13T13:54:46.343Z,7.83
2018-07-13T13:57:15.100Z,4.65
2018-07-13T13:59:43.644Z,4.65
2018-07-13T14:02:12.005Z,4.20
2018-07-13T14:04:40.303Z,2.95
2018-07-13T14:07:08.647Z,3.83
2018-07-13T14:09:36.984Z,4.67
2018-07-13T14:12:05.346Z,4.12
2018-07-13T14:14:33.629Z,4.12
2018-07-13T14:17:02.077Z,3.22
2018-07-13T14:19:30.652Z,5.22
2018-07-13T14:21:59.058Z,3.85
2018-07-13T14:24:27.489Z,6.65
2018-07-13T14:26:55.872Z,3.30
2018-07-13T14:29:24.368Z,4.28
2018-07-13T14:31:52.753Z,3.90
2018-07-13T14:34:21.265Z,4.25
2018-07-13T14:36:49.750Z,4.97
2018-07-13T14:39:18.192Z,5.08
2018-07-13T14:41:46.783Z,3.25
2018-07-13T14:44:16.236Z,3.22
2018-07-13T14:46:44.776Z,4.55
2018-07-13T14:49:13.146Z,4.65
2018-07-13T14:51:42.290Z,5.53
2018-07-13T14:54:10.761Z,5.12
2018-07-13T14:56:39.326Z,4.92
2018-07-13T14:59:07.964Z,4.05
2018-07-13T15:01:36.390Z,4.15
2018-07-13T15:04:04.908Z,3.65
2018-07-13T15:06:33.435Z,3.80
2018-07-13T15:09:01.744Z,2.90
2018-07-13T15:11:30.245Z,4.50
2018-07-13T15:13:58.812Z,2.92
2018-07-13T15:16:27.347Z,4.55
2018-07-13T15:18:55.586Z,4.53
2018-07-13T15:21:24.004Z,4.33
2018-07-13T15:23:52.410Z,6.05
2018-07-13T15:26:20.892Z,5.50
2018-07-13T15:28:49.782Z,4.75
2018-07-13T15:31:18.305Z,3.77
2018-07-13T15:33:47.677Z,3.42
2018-07-13T15:36:16.235Z,4.45
2018-07-13T15:38:44.681Z,3.77
2018-07-13T15:41:13.100Z,3.67
2018-07-13T15:43:41.665Z,2.75
2018-07-13T15:46:10.110Z,4.35
2018-07-13T15:48:38.869Z,3.65
2018-07-13T15:51:07.446Z,3.05
2018-07-13T15:53:35.916Z,2.92
2018-07-13T15:56:04.487Z,5.97
2018-07-13T15:58:33.262Z,4.28
2018-07-13T16:01:01.612Z,3.22
2018-07-13T16:03:30.416Z,2.87
2018-07-13T16:05:58.837Z,3.87
2018-07-13T16:08:27.297Z,7.17
2018-07-13T16:10:55.809Z,3.55
2018-07-13T16:13:24.752Z,4.90
2018-07-13T16:15:53.186Z,2.67
2018-07-13T16:18:21.329Z,6.03
2018-07-13T16:20:49.781Z,2.98
2018-07-13T16:23:18.325Z,3.10
2018-07-13T16:25:46.915Z,2.87
2018-07-13T16:28:15.455Z,3.33
2018-07-13T16:30:43.990Z,2.80
2018-07-13T16:33:12.656Z,3.42
2018-07-13T16:35:40.830Z,5.17
2018-07-13T16:38:09.217Z,8.43
2018-07-13T16:40:37.717Z,2.83
2018-07-13T16:43:06.272Z,3.05
2018-07-13T16:45:34.685Z,3.55
2018-07-13T16:48:03.097Z,5.87
2018-07-13T16:50:31.527Z,2.62
2018-07-13T16:53:03.857Z,2.98
2018-07-13T16:55:32.332Z,3.10
2018-07-13T16:58:00.861Z,2.30
2018-07-13T17:00:29.309Z,2.42
2018-07-13T17:02:57.742Z,3.10
2018-07-13T17:05:26.132Z,3.15
2018-07-13T17:07:54.533Z,2.72
2018-07-13T17:10:23.036Z,5.95
2018-07-13T17:12:52.696Z,2.10
2018-07-13T17:15:21.217Z,3.47
2018-07-13T17:17:49.777Z,2.35
2018-07-13T17:20:18.290Z,2.65
2018-07-13T17:22:46.673Z,2.85
2018-07-13T17:25:15.081Z,2.75
2018-07-13T17:27:43.592Z,2.75
2018-07-13T17:30:15.985Z,3.27
2018-07-13T17:32:47.696Z,2.65
2018-07-13T17:35:18.792Z,2.25
2018-07-13T17:37:48.284Z,4.13
2018-07-13T17:40:19.172Z,2.67
2018-07-13T17:42:48.612Z,2.60
2018-07-13T17:45:18.407Z,2.80
2018-07-13T17:47:47.992Z,3.20
2018-07-13T17:50:16.549Z,2.50
2018-07-13T17:52:45.795Z,2.33
2018-07-13T17:55:15.614Z,3.55
2018-07-13T17:57:44.233Z,2.60
2018-07-13T18:00:15.980Z,3.17
2018-07-13T18:02:47.188Z,5.58
2018-07-13T18:05:18.590Z,5.33
2018-07-13T18:07:53.122Z,4.97
2018-07-13T18:10:21.562Z,2.92
2018-07-13T18:12:49.978Z,3.40
2018-07-13T18:15:18.652Z,4.57
2018-07-13T18:17:48.245Z,5.83
2018-07-13T18:20:16.645Z,3.27
2018-07-13T18:22:47.590Z,3.20
2018-07-13T18:25:20.286Z,2.87
2018-07-13T18:27:50.573Z,3.97
2018-07-13T18:30:20.991Z,5.20
2018-07-13T18:32:51.201Z,4.27
2018-07-13T18:35:22.472Z,2.73
2018-07-13T18:37:52.260Z,2.50
2018-07-13T18:40:21.567Z,3.40
2018-07-13T18:42:50.237Z,2.53
2018-07-13T18:45:20.549Z,4.07
2018-07-13T18:47:50.800Z,2.80
2018-07-13T18:50:21.056Z,2.17
2018-07-13T18:52:51.549Z,3.67
2018-07-13T18:55:23.152Z,3.83
2018-07-13T18:57:54.218Z,2.33
2018-07-13T19:00:24.687Z,4.67
2018-07-13T19:02:54.139Z,2.70
2018-07-13T19:05:24.652Z,5.83
2018-07-13T19:07:55.523Z,3.53
2018-07-13T19:10:28.573Z,3.33
2018-07-13T19:12:57.792Z,2.83
2018-07-13T19:15:29.412Z,3.47
2018-07-13T19:18:01.246Z,6.23
2018-07-13T19:20:32.014Z,3.30
2018-07-13T19:23:01.716Z,3.37
2018-07-13T19:25:30.365Z,2.87
2018-07-13T19:27:58.941Z,2.73
2018-07-13T19:30:27.526Z,4.73
2018-07-13T19:32:58.320Z,3.00
2018-07-13T19:35:31.178Z,5.23
2018-07-13T19:37:59.677Z,3.23
2018-07-13T19:40:28.207Z,2.83
2018-07-13T19:42:56.676Z,3.50
2018-07-13T19:45:25.109Z,3.97
2018-07-13T19:47:53.599Z,3.40
2018-07-13T19:50:23.237Z,5.07
2018-07-13T19:52:52.172Z,3.20
2018-07-13T19:55:21.169Z,4.83
2018-07-13T19:57:51.478Z,3.77
2018-07-13T20:00:20.975Z,7.13
2018-07-13T20:02:49.208Z,5.43
2018-07-13T20:05:19.193Z,4.03
2018-07-13T20:07:48.984Z,3.73
2018-07-13T20:10:18.153Z,4.40
2018-07-13T20:12:46.733Z,4.20
2018-07-13T20:15:15.865Z,3.43
2018-07-13T20:17:45.066Z,3.43
2018-07-13T20:20:14.369Z,4.63
2018-07-13T20:22:43.892Z,3.93
2018-07-13T20:25:13.471Z,3.87
2018-07-13T20:27:43.285Z,4.77
2018-07-13T20:30:12.534Z,3.63
2018-07-13T20:32:42.440Z,4.00
2018-07-13T20:35:13.037Z,3.87
2018-07-13T20:37:42.208Z,6.37
2018-07-13T20:40:10.789Z,4.03
2018-07-13T20:42:40.774Z,6.03
2018-07-13T20:45:09.224Z,6.47
2018-07-13T20:47:38.204Z,5.33
2018-07-13T20:50:08.204Z,5.13
2018-07-13T20:52:40.992Z,6.43
2018-07-13T20:55:09.445Z,6.60
2018-07-13T20:57:38.144Z,4.00
2018-07-13T21:00:07.231Z,4.77
2018-07-13T21:02:35.831Z,4.73
2018-07-13T21:05:04.358Z,4.40
2018-07-13T21:07:32.823Z,4.70
2018-07-13T21:10:01.343Z,5.07
2018-07-13T21:12:29.861Z,4.83
2018-07-13T21:14:58.574Z,4.13
2018-07-13T21:17:27.657Z,5.33
2018-07-13T21:19:57.021Z,4.50
2018-07-13T21:22:26.628Z,4.80
2018-07-13T21:24:55.716Z,4.47
2018-07-13T21:27:24.379Z,4.20
2018-07-13T21:29:54.097Z,5.17
2018-07-13T21:32:23.041Z,4.43
2018-07-13T21:34:51.411Z,5.00
2018-07-13T21:37:19.756Z,3.67
2018-07-13T21:39:48.373Z,4.63
2018-07-13T21:42:16.846Z,4.33
2018-07-13T21:44:46.083Z,6.30
2018-07-13T21:47:15.725Z,3.37
2018-07-13T21:49:45.063Z,3.27
2018-07-13T21:52:14.732Z,3.70
2018-07-13T21:54:46.581Z,2.80
2018-07-13T21:57:14.961Z,3.20
2018-07-13T21:59:43.638Z,3.63
2018-07-13T22:02:12.300Z,2.60
2018-07-13T22:04:41.117Z,4.37
2018-07-13T22:07:11.808Z,2.67
2018-07-13T22:09:41.112Z,2.53
2018-07-13T22:12:09.804Z,2.30
2018-07-13T22:14:38.273Z,2.30
2018-07-13T22:17:06.816Z,2.47
2018-07-13T22:19:35.309Z,2.50
2018-07-13T22:22:03.730Z,2.20
2018-07-13T22:24:32.234Z,2.77
2018-07-13T22:27:00.852Z,2.57
2018-07-13T22:29:29.433Z,2.27
2018-07-13T22:31:57.968Z,5.03
2018-07-13T22:34:26.392Z,2.17
2018-07-13T22:36:54.878Z,2.60
2018-07-13T22:39:23.301Z,1.57
2018-07-13T22:41:51.845Z,1.43
2018-07-13T22:44:20.309Z,1.60
2018-07-13T22:46:48.760Z,2.23
2018-07-13T22:49:17.297Z,4.13
2018-07-13T22:51:45.776Z,1.50
2018-07-13T22:54:14.309Z,1.80
2018-07-13T22:56:42.792Z,3.23
2018-07-13T22:59:11.270Z,4.60
2018-07-13T23:01:39.902Z,1.70
2018-07-13T23:04:08.587Z,1.60
2018-07-13T23:06:37.144Z,1.30
2018-07-13T23:09:06.081Z,2.00
2018-07-13T23:11:34.480Z,1.87
2018-07-13T23:14:03.566Z,1.60
2018-07-13T23:16:32.041Z,2.83
2018-07-13T23:19:00.613Z,1.67
2018-07-13T23:21:29.065Z,1.73
2018-07-13T23:23:57.607Z,2.10
2018-07-13T23:26:26.225Z,1.80
2018-07-13T23:28:54.724Z,1.53
2018-07-13T23:31:23.356Z,2.00
2018-07-13T23:33:51.876Z,2.03
2018-07-13T23:36:20.363Z,2.40
2018-07-13T23:38:48.785Z,1.80
2018-07-13T23:41:17.349Z,1.70
2018-07-13T23:43:45.902Z,1.87
2018-07-13T23:46:14.740Z,1.77
2018-07-13T23:48:43.240Z,1.70
2018-07-13T23:51:11.756Z,1.67
2018-07-13T23:53:40.238Z,2.30
2018-07-13T23:56:08.741Z,1.73
2018-07-13T23:58:37.321Z,1.40
